createdAt,value
2018-09-19T00:02:26.539Z,6.90
2018-09-19T00:04:55.570Z,4.33
2018-09-19T00:07:23.896Z,4.03
2018-09-19T00:09:52.244Z,4.43
2018-09-19T00:12:20.580Z,4.97
2018-09-19T00:14:48.928Z,4.33
2018-09-19T00:17:17.359Z,3.60
2018-09-19T00:19:45.662Z,4.17
2018-09-19T00:22:14.007Z,3.90
2018-09-19T00:24:43.096Z,4.10
2018-09-19T00:27:11.539Z,4.07
2018-09-19T00:29:39.869Z,5.40
2018-09-19T00:32:08.228Z,5.57
2018-09-19T00:34:36.591Z,6.17
2018-09-19T00:37:04.914Z,4.40
2018-09-19T00:39:34.006Z,4.13
2018-09-19T00:42:02.360Z,5.23
2018-09-19T00:44:30.693Z,4.40
2018-09-19T00:46:59.009Z,4.63
2018-09-19T00:49:27.424Z,4.13
2018-09-19T00:51:55.732Z,4.00
2018-09-19T00:54:24.077Z,3.50
2018-09-19T00:56:52.426Z,4.17
2018-09-19T00:59:20.787Z,3.97
2018-09-19T01:01:49.108Z,4.30
2018-09-19T01:04:17.792Z,2.93
2018-09-19T01:06:46.291Z,4.47
2018-09-19T01:09:14.641Z,3.87
2018-09-19T01:11:43.302Z,4.20
2018-09-19T01:14:11.730Z,4.30
2018-09-19T01:16:40.030Z,3.70
2018-09-19T01:19:08.495Z,4.23
2018-09-19T01:21:36.972Z,4.03
2018-09-19T01:24:05.597Z,4.57
2018-09-19T01:26:33.932Z,6.87
2018-09-19T01:29:02.273Z,6.90
2018-09-19T01:31:30.634Z,5.10
2018-09-19T01:34:05.783Z,3.77
2018-09-19T01:36:34.146Z,5.10
2018-09-19T01:39:02.506Z,5.87
2018-09-19T01:41:30.845Z,6.17
2018-09-19T01:43:59.172Z,5.20
2018-09-19T01:46:27.499Z,7.17
2018-09-19T01:48:55.875Z,5.40
2018-09-19T01:51:24.840Z,4.23
2018-09-19T01:53:53.109Z,4.13
2018-09-19T01:56:21.465Z,5.17
2018-09-19T01:58:49.806Z,4.30
2018-09-19T02:01:18.162Z,3.97
2018-09-19T02:03:46.564Z,4.17
2018-09-19T02:06:14.907Z,4.47
2018-09-19T02:08:43.975Z,4.30
2018-09-19T02:11:12.422Z,4.50
2018-09-19T02:13:40.885Z,7.33
2018-09-19T02:16:09.197Z,5.10
2018-09-19T02:18:37.543Z,6.63
2018-09-19T02:21:05.923Z,5.57
2018-09-19T02:23:34.243Z,5.70
2018-09-19T02:26:02.704Z,5.80
2018-09-19T02:28:31.114Z,4.80
2018-09-19T02:30:59.386Z,3.67
2018-09-19T02:33:27.737Z,3.20
2018-09-19T02:35:56.090Z,4.07
2018-09-19T02:38:24.422Z,5.10
2018-09-19T02:40:52.777Z,3.70
2018-09-19T02:43:21.108Z,2.77
2018-09-19T02:45:49.454Z,5.37
2018-09-19T02:48:17.777Z,4.33
2018-09-19T02:50:46.237Z,5.27
2018-09-19T02:53:14.607Z,4.67
2018-09-19T02:55:42.951Z,3.90
2018-09-19T02:58:11.351Z,4.00
2018-09-19T03:00:39.831Z,4.30
2018-09-19T03:03:08.197Z,5.73
2018-09-19T03:05:37.237Z,4.40
2018-09-19T03:08:05.584Z,3.50
2018-09-19T03:10:33.967Z,4.70
2018-09-19T03:13:02.360Z,5.07
2018-09-19T03:15:30.687Z,4.77
2018-09-19T03:17:59.008Z,4.60
2018-09-19T03:20:27.939Z,3.53
2018-09-19T03:22:56.331Z,4.83
2018-09-19T03:25:24.679Z,4.73
2018-09-19T03:27:53.583Z,3.47
2018-09-19T03:30:21.942Z,4.17
2018-09-19T03:32:50.496Z,3.43
2018-09-19T03:35:18.875Z,2.93
2018-09-19T03:37:47.179Z,3.67
2018-09-19T03:40:15.565Z,3.93
2018-09-19T03:42:43.891Z,3.17
2018-09-19T03:45:12.222Z,3.73
2018-09-19T03:47:40.891Z,3.43
2018-09-19T03:50:09.222Z,4.97
2018-09-19T03:52:37.563Z,4.90
2018-09-19T03:55:05.927Z,7.80
2018-09-19T03:57:34.324Z,5.23
2018-09-19T04:00:02.666Z,3.83
2018-09-19T04:02:30.975Z,3.23
2018-09-19T04:04:59.308Z,3.80
2018-09-19T04:07:27.698Z,3.87
2018-09-19T04:09:56.096Z,3.97
2018-09-19T04:12:24.475Z,4.60
2018-09-19T04:14:52.814Z,3.73
2018-09-19T04:17:21.158Z,3.83
2018-09-19T04:19:49.513Z,4.57
2018-09-19T04:22:18.352Z,3.90
2018-09-19T04:24:46.660Z,3.77
2018-09-19T04:29:49.727Z,4.20
2018-09-19T04:32:18.068Z,4.60
2018-09-19T04:34:46.951Z,3.13
2018-09-19T04:37:15.275Z,2.53
2018-09-19T04:39:43.610Z,3.00
2018-09-19T04:42:18.610Z,4.17
2018-09-19T04:44:46.937Z,3.70
2018-09-19T04:49:42.524Z,3.80
2018-09-19T04:52:10.845Z,7.33
2018-09-19T04:54:39.792Z,5.70
2018-09-19T04:57:08.128Z,6.17
2018-09-19T04:59:36.576Z,5.07
2018-09-19T05:02:05.039Z,7.17
2018-09-19T05:04:33.352Z,6.17
2018-09-19T05:07:01.711Z,4.93
2018-09-19T05:09:30.022Z,3.90
2018-09-19T05:11:58.411Z,5.43
2018-09-19T05:14:26.754Z,3.37
2018-09-19T05:16:55.206Z,5.97
2018-09-19T05:19:23.541Z,5.30
2018-09-19T05:21:51.910Z,4.57
2018-09-19T05:24:20.366Z,3.13
2018-09-19T05:26:48.740Z,2.93
2018-09-19T05:29:17.076Z,2.23
2018-09-19T05:31:45.506Z,2.17
2018-09-19T05:34:13.881Z,2.70
2018-09-19T05:36:42.226Z,3.80
2018-09-19T05:39:10.553Z,3.23
2018-09-19T05:41:38.866Z,3.20
2018-09-19T05:44:07.192Z,3.70
2018-09-19T05:46:35.551Z,5.90
2018-09-19T05:49:03.879Z,6.10
2018-09-19T05:51:32.239Z,6.67
2018-09-19T05:54:00.584Z,5.77
2018-09-19T05:56:29.062Z,7.03
2018-09-19T05:58:57.408Z,7.80
2018-09-19T06:01:25.849Z,6.83
2018-09-19T06:03:54.208Z,4.63
2018-09-19T06:06:22.553Z,5.27
2018-09-19T06:08:50.935Z,3.60
2018-09-19T06:11:19.304Z,4.60
2018-09-19T06:13:47.622Z,7.50
2018-09-19T06:16:16.011Z,5.60
2018-09-19T06:18:44.412Z,5.30
2018-09-19T06:21:12.795Z,4.43
2018-09-19T06:23:41.120Z,6.00
2018-09-19T06:26:09.442Z,6.87
2018-09-19T06:28:37.781Z,5.53
2018-09-19T06:31:06.357Z,6.93
2018-09-19T06:33:34.740Z,5.07
2018-09-19T06:36:03.064Z,6.30
2018-09-19T06:38:31.386Z,6.30
2018-09-19T06:40:59.837Z,5.40
2018-09-19T06:43:28.060Z,6.67
2018-09-19T06:45:56.422Z,2.90
2018-09-19T06:48:24.771Z,5.57
2018-09-19T06:50:53.792Z,6.07
2018-09-19T06:53:22.144Z,6.47
2018-09-19T06:55:50.504Z,5.50
2018-09-19T06:58:18.853Z,5.10
2018-09-19T07:00:47.519Z,6.00
2018-09-19T07:03:15.881Z,6.50
2018-09-19T07:05:44.245Z,6.40
2018-09-19T07:08:12.517Z,5.60
2018-09-19T07:10:41.662Z,5.80
2018-09-19T07:13:10.270Z,7.73
2018-09-19T07:15:39.283Z,7.00
2018-09-19T07:18:08.298Z,9.27
2018-09-19T07:20:36.617Z,9.90
2018-09-19T07:23:05.065Z,7.87
2018-09-19T07:25:33.413Z,10.07
2018-09-19T07:28:01.747Z,8.63
2018-09-19T07:30:30.123Z,10.67
2018-09-19T07:32:58.578Z,8.17
2018-09-19T07:35:26.995Z,6.93
2018-09-19T07:37:55.359Z,8.23
2018-09-19T07:40:24.540Z,11.30
2018-09-19T07:42:52.859Z,9.53
2018-09-19T07:45:21.233Z,11.03
2018-09-19T07:47:49.613Z,8.67
2018-09-19T07:50:17.975Z,8.13
2018-09-19T07:52:46.387Z,9.97
2018-09-19T07:55:16.360Z,9.27
2018-09-19T07:57:45.012Z,10.30
2018-09-19T08:00:13.379Z,8.70
2018-09-19T08:02:41.705Z,6.50
2018-09-19T08:05:10.471Z,8.47
2018-09-19T08:07:38.876Z,9.83
2018-09-19T08:10:07.357Z,8.97
2018-09-19T08:12:35.710Z,8.03
2018-09-19T08:15:04.084Z,8.97
2018-09-19T08:17:32.419Z,7.17
2018-09-19T08:20:00.733Z,9.50
2018-09-19T08:22:29.140Z,7.97
2018-09-19T08:24:57.453Z,9.73
2018-09-19T08:27:25.883Z,8.40
2018-09-19T08:29:54.253Z,7.17
2018-09-19T08:32:22.581Z,7.80
2018-09-19T08:34:50.892Z,8.27
2018-09-19T08:37:20.091Z,6.50
2018-09-19T08:39:48.414Z,6.53
2018-09-19T08:42:16.850Z,8.27
2018-09-19T08:44:45.208Z,7.70
2018-09-19T08:47:13.531Z,9.03
2018-09-19T08:49:41.982Z,8.70
2018-09-19T08:52:10.473Z,7.33
2018-09-19T08:54:38.785Z,6.40
2018-09-19T08:57:07.865Z,8.30
2018-09-19T08:59:36.586Z,7.37
2018-09-19T09:02:04.933Z,7.13
2018-09-19T09:04:34.017Z,7.13
2018-09-19T09:07:02.414Z,6.93
2018-09-19T09:09:30.799Z,5.97
2018-09-19T09:11:59.174Z,6.57
2018-09-19T09:14:27.585Z,5.93
2018-09-19T09:16:55.899Z,5.60
2018-09-19T09:19:24.232Z,6.03
2018-09-19T09:21:53.292Z,5.67
2018-09-19T09:24:21.637Z,6.63
2018-09-19T09:26:50.179Z,6.07
2018-09-19T09:29:19.012Z,5.03
2018-09-19T09:31:47.319Z,4.87
2018-09-19T09:34:15.701Z,4.57
2018-09-19T09:36:44.076Z,4.40
2018-09-19T09:39:12.405Z,3.23
2018-09-19T09:41:44.023Z,3.97
2018-09-19T09:44:12.442Z,3.70
2018-09-19T09:46:47.165Z,3.30
2018-09-19T09:49:15.575Z,3.53
2018-09-19T09:51:43.928Z,3.97
2018-09-19T09:54:12.269Z,4.20
2018-09-19T09:56:40.601Z,3.83
2018-09-19T09:59:08.925Z,3.10
2018-09-19T10:01:37.287Z,2.70
2018-09-19T10:04:14.407Z,2.33
2018-09-19T10:06:42.762Z,2.33
2018-09-19T10:09:11.461Z,2.00
2018-09-19T10:11:39.814Z,1.90
2018-09-19T10:14:08.163Z,1.87
2018-09-19T10:16:36.532Z,2.53
2018-09-19T10:19:05.013Z,2.47
2018-09-19T10:21:33.410Z,2.77
2018-09-19T10:24:01.789Z,1.90
2018-09-19T10:26:30.201Z,2.57
2018-09-19T10:28:58.528Z,1.60
2018-09-19T10:31:26.978Z,1.83
2018-09-19T10:33:55.356Z,1.80
2018-09-19T10:36:23.764Z,2.40
2018-09-19T10:38:52.109Z,1.87
2018-09-19T10:41:21.087Z,2.13
2018-09-19T10:43:49.535Z,2.13
2018-09-19T10:46:17.859Z,2.30
2018-09-19T10:48:46.738Z,2.10
2018-09-19T10:51:15.244Z,2.27
2018-09-19T10:53:43.611Z,2.20
2018-09-19T10:56:12.141Z,2.33
2018-09-19T10:58:41.323Z,2.30
2018-09-19T11:01:09.688Z,2.20
2018-09-19T11:03:38.067Z,2.60
2018-09-19T11:06:06.443Z,2.33
2018-09-19T11:08:34.817Z,2.57
2018-09-19T11:11:03.245Z,2.70
2018-09-19T11:13:31.623Z,2.50
2018-09-19T11:16:00.002Z,2.10
2018-09-19T11:18:28.345Z,2.60
2018-09-19T11:20:57.289Z,2.60
2018-09-19T11:23:25.646Z,2.63
2018-09-19T11:25:53.998Z,2.13
2018-09-19T11:28:22.448Z,2.90
2018-09-19T11:30:50.857Z,2.70
2018-09-19T11:33:19.206Z,1.70
2018-09-19T11:35:47.711Z,2.80
2018-09-19T11:38:16.061Z,2.60
2018-09-19T11:40:44.419Z,2.70
2018-09-19T11:43:12.777Z,2.30
2018-09-19T11:45:41.129Z,2.40
2018-09-19T11:48:09.486Z,2.53
2018-09-19T11:50:37.801Z,2.13
2018-09-19T11:53:10.431Z,2.47
2018-09-19T11:55:38.755Z,2.37
2018-09-19T11:58:07.092Z,1.63
2018-09-19T12:00:35.445Z,2.17
2018-09-19T12:03:03.809Z,2.00
2018-09-19T12:05:32.185Z,2.20
2018-09-19T12:08:00.583Z,2.13
2018-09-19T12:10:28.904Z,2.27
2018-09-19T12:12:57.265Z,1.93
2018-09-19T12:15:25.635Z,2.10
2018-09-19T12:17:53.979Z,2.30
2018-09-19T12:20:22.297Z,2.67
2018-09-19T12:22:51.509Z,2.30
2018-09-19T12:25:19.863Z,2.23
2018-09-19T12:27:48.204Z,2.10
2018-09-19T12:30:16.538Z,2.77
2018-09-19T12:32:44.995Z,1.87
2018-09-19T12:35:13.479Z,1.93
2018-09-19T12:37:41.838Z,2.30
2018-09-19T12:40:10.201Z,2.30
2018-09-19T12:42:39.179Z,2.23
2018-09-19T12:45:07.587Z,2.37
2018-09-19T12:47:35.947Z,2.53
2018-09-19T12:50:04.406Z,2.70
2018-09-19T12:52:33.244Z,2.27
2018-09-19T12:55:01.649Z,2.50
2018-09-19T12:57:29.972Z,2.40
2018-09-19T12:59:58.317Z,2.17
2018-09-19T13:02:26.689Z,2.37
2018-09-19T13:04:55.129Z,2.30
2018-09-19T13:07:23.522Z,2.33
2018-09-19T13:09:52.594Z,2.47
2018-09-19T13:12:20.956Z,2.77
2018-09-19T13:14:49.462Z,2.73
2018-09-19T13:17:17.833Z,3.53
2018-09-19T13:19:46.260Z,2.20
2018-09-19T13:22:14.595Z,2.53
2018-09-19T13:24:42.929Z,2.10
2018-09-19T13:27:11.744Z,1.93
2018-09-19T13:29:40.069Z,2.40
2018-09-19T13:32:08.442Z,2.90
2018-09-19T13:34:36.755Z,2.43
2018-09-19T13:37:05.102Z,2.37
2018-09-19T13:39:33.484Z,2.33
2018-09-19T13:42:01.848Z,2.27
2018-09-19T13:44:30.212Z,1.87
2018-09-19T13:46:58.575Z,2.47
2018-09-19T13:49:33.316Z,2.17
2018-09-19T13:52:01.664Z,2.50
2018-09-19T13:54:30.016Z,2.17
2018-09-19T13:56:58.430Z,1.70
2018-09-19T13:59:26.919Z,1.97
2018-09-19T14:01:59.240Z,2.33
2018-09-19T14:04:27.629Z,2.03
2018-09-19T14:06:56.072Z,1.87
2018-09-19T14:09:24.522Z,2.47
2018-09-19T14:11:52.838Z,2.47
2018-09-19T14:14:21.195Z,2.60
2018-09-19T14:16:49.984Z,2.93
2018-09-19T14:19:19.420Z,2.57
2018-09-19T14:21:47.807Z,2.43
2018-09-19T14:24:16.495Z,2.97
2018-09-19T14:26:44.846Z,2.17
2018-09-19T14:29:13.181Z,2.30
2018-09-19T14:31:42.431Z,2.50
2018-09-19T14:34:12.565Z,2.27
2018-09-19T14:36:41.115Z,2.57
2018-09-19T14:39:09.518Z,2.37
2018-09-19T14:41:37.905Z,2.10
2018-09-19T14:44:07.647Z,2.77
2018-09-19T14:46:36.002Z,2.50
2018-09-19T14:49:04.379Z,2.53
2018-09-19T14:51:32.840Z,2.23
2018-09-19T14:54:01.208Z,2.30
2018-09-19T14:56:30.127Z,3.00
2018-09-19T14:58:58.493Z,2.23
2018-09-19T15:01:26.831Z,2.43
2018-09-19T15:03:55.167Z,1.77
2018-09-19T15:06:23.593Z,2.70
2018-09-19T15:08:51.939Z,2.20
2018-09-19T15:11:20.842Z,2.40
2018-09-19T15:13:49.221Z,2.20
2018-09-19T15:16:17.607Z,3.10
2018-09-19T15:18:45.973Z,2.37
2018-09-19T15:21:14.317Z,3.70
2018-09-19T15:23:42.655Z,2.13
2018-09-19T15:26:10.984Z,2.60
2018-09-19T15:28:40.155Z,2.47
2018-09-19T15:31:08.515Z,2.07
2018-09-19T15:33:37.551Z,2.27
2018-09-19T15:36:06.160Z,2.60
2018-09-19T15:38:34.507Z,2.00
2018-09-19T15:41:03.636Z,2.03
2018-09-19T15:43:32.104Z,2.20
2018-09-19T15:46:01.533Z,2.43
2018-09-19T15:48:30.026Z,2.33
2018-09-19T15:50:58.297Z,1.73
2018-09-19T15:53:30.638Z,2.63
2018-09-19T15:55:59.312Z,2.07
2018-09-19T15:58:27.701Z,2.33
2018-09-19T16:00:56.038Z,2.33
2018-09-19T16:03:24.964Z,2.03
2018-09-19T16:05:53.371Z,2.20
2018-09-19T16:08:21.734Z,2.00
2018-09-19T16:10:50.096Z,2.23
2018-09-19T16:13:18.457Z,2.33
2018-09-19T16:15:46.876Z,2.33
2018-09-19T16:18:15.230Z,2.30
2018-09-19T16:20:44.057Z,1.90
2018-09-19T16:23:12.376Z,2.10
2018-09-19T16:25:40.808Z,2.07
2018-09-19T16:28:09.126Z,2.20
2018-09-19T16:30:37.480Z,1.80
2018-09-19T16:33:05.916Z,1.90
2018-09-19T16:35:34.239Z,2.30
2018-09-19T16:38:03.326Z,2.50
2018-09-19T16:40:31.662Z,2.40
2018-09-19T16:43:00.006Z,2.60
2018-09-19T16:45:28.458Z,2.50
2018-09-19T16:47:56.706Z,2.37
2018-09-19T16:50:25.041Z,2.00
2018-09-19T16:52:53.543Z,1.90
2018-09-19T16:55:21.863Z,2.33
2018-09-19T16:57:51.490Z,2.70
2018-09-19T17:00:19.853Z,2.80
2018-09-19T17:02:48.199Z,2.53
2018-09-19T17:05:16.671Z,2.27
2018-09-19T17:07:45.040Z,2.60
2018-09-19T17:10:13.463Z,2.30
2018-09-19T17:12:41.816Z,3.03
2018-09-19T17:15:10.212Z,1.90
2018-09-19T17:17:38.558Z,2.13
2018-09-19T17:20:07.228Z,1.83
2018-09-19T17:22:35.684Z,2.00
2018-09-19T17:25:04.077Z,2.77
2018-09-19T17:27:32.484Z,2.43
2018-09-19T17:30:00.811Z,1.93
2018-09-19T17:32:29.190Z,1.97
2018-09-19T17:34:58.105Z,2.10
2018-09-19T17:37:26.478Z,1.47
2018-09-19T17:39:54.838Z,1.87
2018-09-19T17:42:23.275Z,1.83
2018-09-19T17:44:51.620Z,2.10
2018-09-19T17:47:19.987Z,1.90
2018-09-19T17:49:48.478Z,2.57
2018-09-19T17:52:16.831Z,1.57
2018-09-19T17:54:45.240Z,1.87
2018-09-19T17:57:13.640Z,2.10
2018-09-19T17:59:41.990Z,2.90
2018-09-19T18:02:10.351Z,2.87
2018-09-19T18:04:38.756Z,2.43
2018-09-19T18:07:07.135Z,2.07
2018-09-19T18:09:36.180Z,2.70
2018-09-19T18:12:04.540Z,2.90
2018-09-19T18:14:32.871Z,2.10
2018-09-19T18:17:01.224Z,2.33
2018-09-19T18:19:29.581Z,2.73
2018-09-19T18:21:57.953Z,2.90
2018-09-19T18:24:26.334Z,2.40
2018-09-19T18:26:54.707Z,2.03
2018-09-19T18:29:23.045Z,1.80
2018-09-19T18:31:51.528Z,2.37
2018-09-19T18:34:20.157Z,2.30
2018-09-19T18:36:48.515Z,2.63
2018-09-19T18:39:16.868Z,1.77
2018-09-19T18:41:45.267Z,2.30
2018-09-19T18:44:13.696Z,2.60
2018-09-19T18:46:42.440Z,2.43
2018-09-19T18:49:10.877Z,2.30
2018-09-19T18:51:39.221Z,2.40
2018-09-19T18:54:08.261Z,2.90
2018-09-19T18:56:36.825Z,2.63
2018-09-19T18:59:05.208Z,2.40
2018-09-19T19:01:33.788Z,2.20
2018-09-19T19:04:02.076Z,2.30
2018-09-19T19:06:30.421Z,2.53
2018-09-19T19:08:58.787Z,2.70
2018-09-19T19:11:27.151Z,2.43
2018-09-19T19:13:55.564Z,2.17
2018-09-19T19:16:23.946Z,2.20
2018-09-19T19:18:52.359Z,2.87
2018-09-19T19:21:20.649Z,2.57
2018-09-19T19:23:55.565Z,2.70
2018-09-19T19:26:23.997Z,2.53
2018-09-19T19:28:52.341Z,2.60
2018-09-19T19:31:20.713Z,2.30
2018-09-19T19:33:49.069Z,3.20
2018-09-19T19:36:17.457Z,2.90
2018-09-19T19:38:45.917Z,3.23
2018-09-19T19:41:14.416Z,2.97
2018-09-19T19:43:42.780Z,3.27
2018-09-19T19:46:11.153Z,3.23
2018-09-19T19:48:39.556Z,3.00
2018-09-19T19:51:07.964Z,2.80
2018-09-19T19:53:36.340Z,3.07
2018-09-19T19:56:04.735Z,3.50
2018-09-19T19:58:33.084Z,2.57
2018-09-19T20:01:01.464Z,2.33
2018-09-19T20:03:29.952Z,3.17
2018-09-19T20:05:58.288Z,3.87
2018-09-19T20:08:26.642Z,3.63
2018-09-19T20:10:55.003Z,4.20
2018-09-19T20:13:23.624Z,3.03
2018-09-19T20:15:51.993Z,2.87
2018-09-19T20:18:20.351Z,3.13
2018-09-19T20:20:48.741Z,3.10
2018-09-19T20:23:17.137Z,3.40
2018-09-19T20:25:45.556Z,3.23
2018-09-19T20:28:13.941Z,3.50
2018-09-19T20:30:42.312Z,3.00
2018-09-19T20:33:10.670Z,3.87
2018-09-19T20:35:39.023Z,3.87
2018-09-19T20:38:07.396Z,3.50
2018-09-19T20:40:35.742Z,3.30
2018-09-19T20:43:04.122Z,3.47
2018-09-19T20:45:32.521Z,3.13
2018-09-19T20:48:00.852Z,3.93
2018-09-19T20:50:29.231Z,2.60
2018-09-19T20:52:57.644Z,4.03
2018-09-19T20:55:26.716Z,4.47
2018-09-19T20:57:55.081Z,3.90
2018-09-19T21:00:23.436Z,4.07
2018-09-19T21:02:51.815Z,4.97
2018-09-19T21:05:20.173Z,4.20
2018-09-19T21:07:48.575Z,4.70
2018-09-19T21:10:17.012Z,3.43
2018-09-19T21:12:45.376Z,4.10
2018-09-19T21:15:13.764Z,4.13
2018-09-19T21:17:42.102Z,3.53
2018-09-19T21:20:10.436Z,4.07
2018-09-19T21:22:38.839Z,3.97
2018-09-19T21:25:07.168Z,4.53
2018-09-19T21:27:35.560Z,4.10
2018-09-19T21:30:04.007Z,3.20
2018-09-19T21:32:32.368Z,3.83
2018-09-19T21:35:00.724Z,5.33
2018-09-19T21:37:29.325Z,4.60
2018-09-19T21:39:57.795Z,5.33
2018-09-19T21:42:26.261Z,4.80
2018-09-19T21:44:54.584Z,3.90
2018-09-19T21:47:22.942Z,3.97
2018-09-19T21:49:51.282Z,4.13
2018-09-19T21:52:19.611Z,4.33
2018-09-19T21:54:48.068Z,3.60
2018-09-19T21:57:16.420Z,5.03
2018-09-19T21:59:44.851Z,4.43
2018-09-19T22:02:15.193Z,5.93
2018-09-19T22:04:43.540Z,5.30
2018-09-19T22:07:11.869Z,3.87
2018-09-19T22:09:40.246Z,4.03
2018-09-19T22:12:10.192Z,4.53
2018-09-19T22:14:39.599Z,4.10
2018-09-19T22:17:08.024Z,6.30
2018-09-19T22:19:36.537Z,5.60
2018-09-19T22:22:04.961Z,4.70
2018-09-19T22:24:33.751Z,4.23
2018-09-19T22:27:08.717Z,5.67
2018-09-19T22:29:37.061Z,6.60
2018-09-19T22:32:05.517Z,6.33
2018-09-19T22:34:33.845Z,6.10
2018-09-19T22:37:02.235Z,6.07
2018-09-19T22:39:30.565Z,5.93
2018-09-19T22:41:58.940Z,5.57
2018-09-19T22:44:28.099Z,5.30
2018-09-19T22:46:56.417Z,4.83
2018-09-19T22:49:24.763Z,4.30
2018-09-19T22:51:53.099Z,4.40
2018-09-19T22:54:21.428Z,3.90
2018-09-19T22:56:49.852Z,5.07
2018-09-19T22:59:18.171Z,5.07
2018-09-19T23:01:47.206Z,4.57
2018-09-19T23:04:15.619Z,6.87
2018-09-19T23:06:43.969Z,5.20
2018-09-19T23:09:12.407Z,5.90
2018-09-19T23:11:40.730Z,6.33
2018-09-19T23:14:09.081Z,5.87
2018-09-19T23:16:37.413Z,6.37
2018-09-19T23:19:05.799Z,4.70
2018-09-19T23:21:34.165Z,5.33
2018-09-19T23:24:02.508Z,6.23
2018-09-19T23:26:30.928Z,5.97
2018-09-19T23:28:59.288Z,6.30
2018-09-19T23:31:27.694Z,6.67
2018-09-19T23:33:56.019Z,6.90
2018-09-19T23:36:24.351Z,8.07
2018-09-19T23:38:52.718Z,6.07
2018-09-19T23:41:21.131Z,6.47
2018-09-19T23:43:49.595Z,6.60
2018-09-19T23:46:18.119Z,6.80
2018-09-19T23:48:46.447Z,6.60
2018-09-19T23:51:15.808Z,6.40
2018-09-19T23:53:44.155Z,7.20
2018-09-19T23:56:12.507Z,6.50
2018-09-19T23:58:41.025Z,7.03
